الصفحة الرئيسية
METAR-TAF:

METAR-TAF

مطار :

Yap, مايكرونيزيا

دائرة عرض: 09-29N, خط طول: 138-05E, ارتفاع: 28 متر

مراقبة الطقس الحالي

تاريخ ووقت الإصدار 38 دقيقة قبل الساعة 22:50UTC
ريح 5 عقدةمن اتجاهات متغيرة
درجة الحرارة 30°درجة مئوية
الرطوبة 79%
ضغط 1011 hPa
الرؤية: 19.3 كم
غيوم قليلة على ارتفاع 1600 قدم
غيوم مفككة على ارتفاع 30000 قدم

METAR: PTYA 202250Z VRB05KT 12SM FEW016 BKN300 30/26 A2985 RMK SLP110 T03010262

زمن: 09:28 (23:28 UTC)

توقعات

تاريخ ووقت الإصدار 6ساعات و 8 دقيقة قبل الساعة 17:20UTC
التوقعات صالحة من20 الساعة 18 UTC إلى 21 الساعة 18 UTC
ريح 5 عقدة من الشمال/الشمال الشرقي
الرؤية: 10 كم
غيوم قليلة على ارتفاع 1600 قدم
غيوم قليلة على ارتفاع 13000 قدم
زخات في الجوار

TAF: PTYA 201720Z 2018/2118 03005KT P6SM VCSH FEW016 FEW130

أرصاد الطقس والتوقعات من أكثر من 4000 مطار (تقارير الطقس للمطار METAR والتنبؤ بالطقس بالمطارTAF).

المحطات المتاحة هي النقط الصفراء والحمراء على الخريطة.

حرك المؤشر فوق النقطة لمعرفة اسم المحطة.

ثم انقر لمعرفة أرصاد وتوقعات الطقس.

لتغيير الخارطة: اضغط على الأزرار الخضراء مع رمز الصليب الأسود للتكبير. على الزر الأخضر مع شرطة للتصغير، أو على الأسهم الخضراء للخرائط المجاورة.


METAR-TAF: